sensor_id;sensor_type;location;lat;lon;timestamp;P1;durP1;ratioP1;P2;durP2;ratioP2
76346;SDS011;65171;48.378;10.010;2023-01-29T00:00:33;6.47;;;5.53;;
76346;SDS011;65171;48.378;10.010;2023-01-29T00:02:59;6.00;;;5.40;;
76346;SDS011;65171;48.378;10.010;2023-01-29T00:05:24;5.83;;;5.07;;
76346;SDS011;65171;48.378;10.010;2023-01-29T00:07:49;7.00;;;6.23;;
76346;SDS011;65171;48.378;10.010;2023-01-29T00:10:14;6.93;;;5.80;;
76346;SDS011;65171;48.378;10.010;2023-01-29T00:12:40;6.37;;;5.77;;
76346;SDS011;65171;48.378;10.010;2023-01-29T00:15:05;6.33;;;5.73;;
76346;SDS011;65171;48.378;10.010;2023-01-29T00:17:31;6.67;;;5.80;;
76346;SDS011;65171;48.378;10.010;2023-01-29T00:19:56;6.93;;;6.23;;
76346;SDS011;65171;48.378;10.010;2023-01-29T00:22:21;9.93;;;6.17;;
76346;SDS011;65171;48.378;10.010;2023-01-29T00:24:46;7.10;;;6.40;;
76346;SDS011;65171;48.378;10.010;2023-01-29T00:27:12;6.80;;;6.10;;
76346;SDS011;65171;48.378;10.010;2023-01-29T00:29:37;7.73;;;6.60;;
76346;SDS011;65171;48.378;10.010;2023-01-29T00:32:02;7.30;;;6.60;;
76346;SDS011;65171;48.378;10.010;2023-01-29T00:34:27;7.40;;;6.57;;
76346;SDS011;65171;48.378;10.010;2023-01-29T00:36:52;7.77;;;6.83;;
76346;SDS011;65171;48.378;10.010;2023-01-29T00:39:18;7.17;;;6.47;;
76346;SDS011;65171;48.378;10.010;2023-01-29T00:41:43;8.17;;;6.47;;
76346;SDS011;65171;48.378;10.010;2023-01-29T00:44:08;7.90;;;6.67;;
76346;SDS011;65171;48.378;10.010;2023-01-29T00:46:33;8.57;;;6.90;;
76346;SDS011;65171;48.378;10.010;2023-01-29T00:48:58;7.30;;;6.50;;
76346;SDS011;65171;48.378;10.010;2023-01-29T00:51:23;7.93;;;6.57;;
76346;SDS011;65171;48.378;10.010;2023-01-29T00:53:49;7.90;;;7.00;;
76346;SDS011;65171;48.378;10.010;2023-01-29T00:56:14;7.17;;;6.47;;
76346;SDS011;65171;48.378;10.010;2023-01-29T00:58:39;7.53;;;6.73;;
76346;SDS011;65171;48.378;10.010;2023-01-29T01:01:04;7.70;;;6.57;;
76346;SDS011;65171;48.378;10.010;2023-01-29T01:03:29;7.07;;;6.37;;
76346;SDS011;65171;48.378;10.010;2023-01-29T01:06:01;7.30;;;6.13;;
76346;SDS011;65171;48.378;10.010;2023-01-29T01:08:28;6.83;;;6.13;;
76346;SDS011;65171;48.378;10.010;2023-01-29T01:11:02;6.67;;;6.07;;
76346;SDS011;65171;48.378;10.010;2023-01-29T01:13:30;6.83;;;6.03;;
76346;SDS011;65171;48.378;10.010;2023-01-29T01:15:56;6.90;;;6.10;;
76346;SDS011;65171;48.378;10.010;2023-01-29T01:18:21;7.03;;;6.00;;
76346;SDS011;65171;48.378;10.010;2023-01-29T01:20:47;6.97;;;6.27;;
76346;SDS011;65171;48.378;10.010;2023-01-29T01:23:12;7.70;;;6.03;;
76346;SDS011;65171;48.378;10.010;2023-01-29T01:25:37;9.20;;;6.37;;
76346;SDS011;65171;48.378;10.010;2023-01-29T01:28:03;7.07;;;6.33;;
76346;SDS011;65171;48.378;10.010;2023-01-29T01:30:28;7.17;;;6.03;;
76346;SDS011;65171;48.378;10.010;2023-01-29T01:32:53;6.77;;;6.07;;
76346;SDS011;65171;48.378;10.010;2023-01-29T01:35:18;6.50;;;5.80;;
76346;SDS011;65171;48.378;10.010;2023-01-29T01:37:43;6.97;;;6.27;;
76346;SDS011;65171;48.378;10.010;2023-01-29T01:40:13;6.13;;;5.53;;
76346;SDS011;65171;48.378;10.010;2023-01-29T01:42:40;6.70;;;6.00;;
76346;SDS011;65171;48.378;10.010;2023-01-29T01:45:07;7.70;;;5.87;;
76346;SDS011;65171;48.378;10.010;2023-01-29T01:47:44;6.00;;;5.40;;
76346;SDS011;65171;48.378;10.010;2023-01-29T01:50:55;6.93;;;6.00;;
76346;SDS011;65171;48.378;10.010;2023-01-29T01:53:08;7.23;;;5.70;;
76346;SDS011;65171;48.378;10.010;2023-01-29T01:55:38;7.30;;;6.10;;
76346;SDS011;65171;48.378;10.010;2023-01-29T01:58:09;6.57;;;5.87;;
76346;SDS011;65171;48.378;10.010;2023-01-29T02:00:44;6.93;;;6.23;;
76346;SDS011;65171;48.378;10.010;2023-01-29T02:03:09;7.53;;;6.03;;
76346;SDS011;65171;48.378;10.010;2023-01-29T02:05:35;6.20;;;5.60;;
76346;SDS011;65171;48.378;10.010;2023-01-29T02:08:01;6.47;;;5.87;;
76346;SDS011;65171;48.378;10.010;2023-01-29T02:10:26;6.20;;;5.60;;
76346;SDS011;65171;48.378;10.010;2023-01-29T02:12:56;7.03;;;6.33;;
76346;SDS011;65171;48.378;10.010;2023-01-29T02:15:21;6.70;;;5.73;;
76346;SDS011;65171;48.378;10.010;2023-01-29T02:17:47;6.47;;;5.87;;
76346;SDS011;65171;48.378;10.010;2023-01-29T02:20:25;7.30;;;5.90;;
76346;SDS011;65171;48.378;10.010;2023-01-29T02:26:08;7.10;;;6.40;;
76346;SDS011;65171;48.378;10.010;2023-01-29T02:31:38;7.70;;;6.43;;
76346;SDS011;65171;48.378;10.010;2023-01-29T02:34:21;7.47;;;6.67;;
76346;SDS011;65171;48.378;10.010;2023-01-29T02:37:04;6.97;;;6.27;;
76346;SDS011;65171;48.378;10.010;2023-01-29T02:39:36;7.73;;;6.43;;
76346;SDS011;65171;48.378;10.010;2023-01-29T02:47:58;7.17;;;6.33;;
76346;SDS011;65171;48.378;10.010;2023-01-29T02:50:28;7.77;;;6.47;;
76346;SDS011;65171;48.378;10.010;2023-01-29T02:53:00;7.20;;;6.43;;
76346;SDS011;65171;48.378;10.010;2023-01-29T02:55:36;7.47;;;6.50;;
76346;SDS011;65171;48.378;10.010;2023-01-29T03:01:00;7.10;;;6.40;;
76346;SDS011;65171;48.378;10.010;2023-01-29T03:03:32;8.07;;;6.60;;
76346;SDS011;65171;48.378;10.010;2023-01-29T03:06:06;8.03;;;6.77;;
76346;SDS011;65171;48.378;10.010;2023-01-29T03:08:40;8.10;;;6.87;;
76346;SDS011;65171;48.378;10.010;2023-01-29T03:11:09;8.23;;;6.50;;
76346;SDS011;65171;48.378;10.010;2023-01-29T03:13:43;7.13;;;6.30;;
76346;SDS011;65171;48.378;10.010;2023-01-29T03:16:22;6.90;;;6.20;;
76346;SDS011;65171;48.378;10.010;2023-01-29T03:19:04;8.47;;;6.77;;
76346;SDS011;65171;48.378;10.010;2023-01-29T03:21:37;8.10;;;6.83;;
76346;SDS011;65171;48.378;10.010;2023-01-29T03:24:07;7.93;;;6.67;;
76346;SDS011;65171;48.378;10.010;2023-01-29T03:26:36;7.30;;;5.93;;
76346;SDS011;65171;48.378;10.010;2023-01-29T03:29:02;9.17;;;6.60;;
76346;SDS011;65171;48.378;10.010;2023-01-29T03:31:29;8.87;;;7.57;;
76346;SDS011;65171;48.378;10.010;2023-01-29T03:34:15;8.73;;;7.63;;
76346;SDS011;65171;48.378;10.010;2023-01-29T03:36:47;7.87;;;6.77;;
76346;SDS011;65171;48.378;10.010;2023-01-29T03:39:23;8.87;;;7.23;;
76346;SDS011;65171;48.378;10.010;2023-01-29T03:44:47;9.40;;;7.23;;
76346;SDS011;65171;48.378;10.010;2023-01-29T03:47:26;8.20;;;7.17;;
76346;SDS011;65171;48.378;10.010;2023-01-29T03:58:07;8.77;;;7.80;;
76346;SDS011;65171;48.378;10.010;2023-01-29T04:00:37;8.93;;;7.67;;
76346;SDS011;65171;48.378;10.010;2023-01-29T04:03:11;9.00;;;7.20;;
76346;SDS011;65171;48.378;10.010;2023-01-29T04:05:45;10.03;;;8.20;;
76346;SDS011;65171;48.378;10.010;2023-01-29T04:08:16;9.23;;;8.07;;
76346;SDS011;65171;48.378;10.010;2023-01-29T04:10:47;10.80;;;7.90;;
76346;SDS011;65171;48.378;10.010;2023-01-29T04:13:15;8.73;;;7.80;;
76346;SDS011;65171;48.378;10.010;2023-01-29T04:15:45;9.53;;;8.23;;
76346;SDS011;65171;48.378;10.010;2023-01-29T04:18:14;9.70;;;8.70;;
76346;SDS011;65171;48.378;10.010;2023-01-29T04:20:40;10.70;;;8.23;;
76346;SDS011;65171;48.378;10.010;2023-01-29T04:23:06;10.67;;;8.63;;
76346;SDS011;65171;48.378;10.010;2023-01-29T04:25:43;9.33;;;8.07;;
76346;SDS011;65171;48.378;10.010;2023-01-29T04:28:22;9.83;;;7.60;;
76346;SDS011;65171;48.378;10.010;2023-01-29T04:30:53;10.30;;;8.43;;
76346;SDS011;65171;48.378;10.010;2023-01-29T04:38:41;9.43;;;8.27;;
76346;SDS011;65171;48.378;10.010;2023-01-29T04:46:46;9.03;;;8.13;;
76346;SDS011;65171;48.378;10.010;2023-01-29T04:51:57;10.20;;;8.57;;
76346;SDS011;65171;48.378;10.010;2023-01-29T04:57:08;11.93;;;8.60;;
76346;SDS011;65171;48.378;10.010;2023-01-29T04:59:38;10.17;;;8.73;;
76346;SDS011;65171;48.378;10.010;2023-01-29T05:02:06;10.60;;;8.07;;
76346;SDS011;65171;48.378;10.010;2023-01-29T05:04:34;10.00;;;8.33;;
76346;SDS011;65171;48.378;10.010;2023-01-29T05:07:03;9.67;;;8.67;;
76346;SDS011;65171;48.378;10.010;2023-01-29T05:09:31;10.53;;;8.93;;
76346;SDS011;65171;48.378;10.010;2023-01-29T05:11:58;9.93;;;8.50;;
76346;SDS011;65171;48.378;10.010;2023-01-29T05:14:25;9.30;;;8.30;;
76346;SDS011;65171;48.378;10.010;2023-01-29T05:16:52;9.50;;;7.97;;
76346;SDS011;65171;48.378;10.010;2023-01-29T05:19:21;9.60;;;8.03;;
76346;SDS011;65171;48.378;10.010;2023-01-29T05:21:47;9.87;;;8.50;;
76346;SDS011;65171;48.378;10.010;2023-01-29T05:24:15;10.60;;;9.27;;
76346;SDS011;65171;48.378;10.010;2023-01-29T05:26:42;10.70;;;9.23;;
76346;SDS011;65171;48.378;10.010;2023-01-29T05:29:08;9.97;;;8.77;;
76346;SDS011;65171;48.378;10.010;2023-01-29T05:31:34;10.20;;;8.73;;
76346;SDS011;65171;48.378;10.010;2023-01-29T05:33:59;9.97;;;8.80;;
76346;SDS011;65171;48.378;10.010;2023-01-29T05:36:24;10.80;;;8.73;;
76346;SDS011;65171;48.378;10.010;2023-01-29T05:38:49;9.97;;;8.97;;
76346;SDS011;65171;48.378;10.010;2023-01-29T05:41:14;9.83;;;8.50;;
76346;SDS011;65171;48.378;10.010;2023-01-29T05:43:39;10.60;;;9.13;;
76346;SDS011;65171;48.378;10.010;2023-01-29T05:46:05;11.60;;;9.10;;
76346;SDS011;65171;48.378;10.010;2023-01-29T05:48:30;9.07;;;7.97;;
76346;SDS011;65171;48.378;10.010;2023-01-29T05:50:58;11.60;;;9.37;;
76346;SDS011;65171;48.378;10.010;2023-01-29T05:53:24;10.63;;;9.20;;
76346;SDS011;65171;48.378;10.010;2023-01-29T05:55:49;10.67;;;9.57;;
76346;SDS011;65171;48.378;10.010;2023-01-29T05:58:15;10.67;;;9.57;;
76346;SDS011;65171;48.378;10.010;2023-01-29T06:00:40;11.07;;;9.50;;
76346;SDS011;65171;48.378;10.010;2023-01-29T06:03:05;10.77;;;9.17;;
76346;SDS011;65171;48.378;10.010;2023-01-29T06:05:31;9.67;;;8.47;;
76346;SDS011;65171;48.378;10.010;2023-01-29T06:07:56;10.93;;;9.10;;
76346;SDS011;65171;48.378;10.010;2023-01-29T06:10:21;10.30;;;8.80;;
76346;SDS011;65171;48.378;10.010;2023-01-29T06:12:46;10.83;;;9.50;;
76346;SDS011;65171;48.378;10.010;2023-01-29T06:15:12;10.30;;;8.60;;
76346;SDS011;65171;48.378;10.010;2023-01-29T06:17:37;11.17;;;9.30;;
76346;SDS011;65171;48.378;10.010;2023-01-29T06:20:03;10.63;;;9.07;;
76346;SDS011;65171;48.378;10.010;2023-01-29T06:22:29;11.60;;;9.37;;
76346;SDS011;65171;48.378;10.010;2023-01-29T06:24:54;10.63;;;9.53;;
76346;SDS011;65171;48.378;10.010;2023-01-29T06:27:19;11.40;;;9.03;;
76346;SDS011;65171;48.378;10.010;2023-01-29T06:29:44;11.03;;;9.30;;
76346;SDS011;65171;48.378;10.010;2023-01-29T06:32:09;10.83;;;9.63;;
76346;SDS011;65171;48.378;10.010;2023-01-29T06:34:35;12.40;;;10.20;;
76346;SDS011;65171;48.378;10.010;2023-01-29T06:37:00;10.77;;;9.07;;
76346;SDS011;65171;48.378;10.010;2023-01-29T06:39:25;11.67;;;9.37;;
76346;SDS011;65171;48.378;10.010;2023-01-29T06:41:50;12.03;;;9.20;;
76346;SDS011;65171;48.378;10.010;2023-01-29T06:44:15;10.13;;;9.03;;
76346;SDS011;65171;48.378;10.010;2023-01-29T06:46:41;11.93;;;10.33;;
76346;SDS011;65171;48.378;10.010;2023-01-29T06:49:06;10.20;;;9.07;;
76346;SDS011;65171;48.378;10.010;2023-01-29T06:51:31;10.77;;;9.30;;
76346;SDS011;65171;48.378;10.010;2023-01-29T06:53:56;11.10;;;9.37;;
76346;SDS011;65171;48.378;10.010;2023-01-29T06:56:22;11.53;;;9.80;;
76346;SDS011;65171;48.378;10.010;2023-01-29T06:58:47;9.87;;;8.73;;
76346;SDS011;65171;48.378;10.010;2023-01-29T07:01:13;10.97;;;9.23;;
76346;SDS011;65171;48.378;10.010;2023-01-29T07:03:38;11.43;;;8.93;;
76346;SDS011;65171;48.378;10.010;2023-01-29T07:06:04;10.87;;;9.03;;
76346;SDS011;65171;48.378;10.010;2023-01-29T07:08:29;10.67;;;9.00;;
76346;SDS011;65171;48.378;10.010;2023-01-29T07:11:01;9.90;;;8.53;;
76346;SDS011;65171;48.378;10.010;2023-01-29T07:13:27;10.53;;;9.00;;
76346;SDS011;65171;48.378;10.010;2023-01-29T07:15:53;11.03;;;9.73;;
76346;SDS011;65171;48.378;10.010;2023-01-29T07:18:18;12.90;;;9.57;;
76346;SDS011;65171;48.378;10.010;2023-01-29T07:20:43;13.60;;;9.67;;
76346;SDS011;65171;48.378;10.010;2023-01-29T07:23:12;12.00;;;10.07;;
76346;SDS011;65171;48.378;10.010;2023-01-29T07:25:38;12.33;;;9.87;;
76346;SDS011;65171;48.378;10.010;2023-01-29T07:28:03;11.43;;;8.57;;
76346;SDS011;65171;48.378;10.010;2023-01-29T07:30:29;9.77;;;8.40;;
76346;SDS011;65171;48.378;10.010;2023-01-29T07:32:54;11.10;;;9.37;;
76346;SDS011;65171;48.378;10.010;2023-01-29T07:35:20;11.80;;;10.00;;
76346;SDS011;65171;48.378;10.010;2023-01-29T07:37:48;10.97;;;9.80;;
76346;SDS011;65171;48.378;10.010;2023-01-29T07:40:14;9.53;;;8.27;;
76346;SDS011;65171;48.378;10.010;2023-01-29T07:42:39;9.40;;;7.80;;
76346;SDS011;65171;48.378;10.010;2023-01-29T07:45:05;9.07;;;7.70;;
76346;SDS011;65171;48.378;10.010;2023-01-29T07:47:31;9.20;;;7.60;;
76346;SDS011;65171;48.378;10.010;2023-01-29T07:49:56;12.00;;;8.07;;
76346;SDS011;65171;48.378;10.010;2023-01-29T07:52:21;8.53;;;7.50;;
76346;SDS011;65171;48.378;10.010;2023-01-29T07:54:46;10.13;;;8.43;;
76346;SDS011;65171;48.378;10.010;2023-01-29T07:57:11;10.27;;;8.93;;
76346;SDS011;65171;48.378;10.010;2023-01-29T07:59:37;9.07;;;8.10;;
76346;SDS011;65171;48.378;10.010;2023-01-29T08:02:02;11.10;;;9.10;;
76346;SDS011;65171;48.378;10.010;2023-01-29T08:04:27;10.23;;;8.73;;
76346;SDS011;65171;48.378;10.010;2023-01-29T08:06:52;9.57;;;8.50;;
76346;SDS011;65171;48.378;10.010;2023-01-29T08:09:17;9.13;;;8.10;;
76346;SDS011;65171;48.378;10.010;2023-01-29T08:11:42;9.27;;;7.87;;
76346;SDS011;65171;48.378;10.010;2023-01-29T08:14:08;11.23;;;8.30;;
76346;SDS011;65171;48.378;10.010;2023-01-29T08:16:33;9.20;;;8.10;;
76346;SDS011;65171;48.378;10.010;2023-01-29T08:19:00;10.33;;;8.73;;
76346;SDS011;65171;48.378;10.010;2023-01-29T08:21:26;11.07;;;8.50;;
76346;SDS011;65171;48.378;10.010;2023-01-29T08:23:51;11.23;;;8.77;;
76346;SDS011;65171;48.378;10.010;2023-01-29T08:26:16;10.17;;;8.83;;
76346;SDS011;65171;48.378;10.010;2023-01-29T08:28:41;9.80;;;8.63;;
76346;SDS011;65171;48.378;10.010;2023-01-29T08:31:16;8.37;;;7.47;;
76346;SDS011;65171;48.378;10.010;2023-01-29T08:33:42;9.00;;;7.73;;
76346;SDS011;65171;48.378;10.010;2023-01-29T08:36:07;9.20;;;7.80;;
76346;SDS011;65171;48.378;10.010;2023-01-29T08:38:33;8.77;;;7.83;;
76346;SDS011;65171;48.378;10.010;2023-01-29T08:40:58;9.87;;;8.37;;
76346;SDS011;65171;48.378;10.010;2023-01-29T08:43:24;9.00;;;7.93;;
76346;SDS011;65171;48.378;10.010;2023-01-29T08:45:49;9.27;;;7.77;;
76346;SDS011;65171;48.378;10.010;2023-01-29T08:48:14;9.40;;;8.10;;
76346;SDS011;65171;48.378;10.010;2023-01-29T08:50:39;8.93;;;7.80;;
76346;SDS011;65171;48.378;10.010;2023-01-29T08:53:05;13.00;;;10.10;;
76346;SDS011;65171;48.378;10.010;2023-01-29T08:55:31;9.10;;;7.93;;
76346;SDS011;65171;48.378;10.010;2023-01-29T08:57:58;10.43;;;8.23;;
76346;SDS011;65171;48.378;10.010;2023-01-29T09:00:23;9.20;;;7.87;;
76346;SDS011;65171;48.378;10.010;2023-01-29T09:02:49;9.53;;;8.03;;
76346;SDS011;65171;48.378;10.010;2023-01-29T09:05:14;8.73;;;7.83;;
76346;SDS011;65171;48.378;10.010;2023-01-29T09:07:39;9.23;;;8.20;;
76346;SDS011;65171;48.378;10.010;2023-01-29T09:10:05;8.80;;;7.60;;
76346;SDS011;65171;48.378;10.010;2023-01-29T09:12:30;8.37;;;7.07;;
76346;SDS011;65171;48.378;10.010;2023-01-29T09:14:55;8.37;;;7.43;;
76346;SDS011;65171;48.378;10.010;2023-01-29T09:17:20;8.30;;;7.40;;
76346;SDS011;65171;48.378;10.010;2023-01-29T09:19:45;8.73;;;7.50;;
76346;SDS011;65171;48.378;10.010;2023-01-29T09:22:11;9.20;;;7.77;;
76346;SDS011;65171;48.378;10.010;2023-01-29T09:24:36;9.23;;;7.73;;
76346;SDS011;65171;48.378;10.010;2023-01-29T09:27:01;9.50;;;7.67;;
76346;SDS011;65171;48.378;10.010;2023-01-29T09:29:27;8.80;;;7.70;;
76346;SDS011;65171;48.378;10.010;2023-01-29T09:31:52;9.77;;;8.00;;
76346;SDS011;65171;48.378;10.010;2023-01-29T09:34:17;9.70;;;8.13;;
76346;SDS011;65171;48.378;10.010;2023-01-29T09:36:42;8.60;;;7.70;;
76346;SDS011;65171;48.378;10.010;2023-01-29T09:39:07;9.13;;;7.73;;
76346;SDS011;65171;48.378;10.010;2023-01-29T09:44:10;9.47;;;7.63;;
76346;SDS011;65171;48.378;10.010;2023-01-29T09:46:42;9.37;;;8.10;;
76346;SDS011;65171;48.378;10.010;2023-01-29T09:52:06;9.30;;;8.17;;
76346;SDS011;65171;48.378;10.010;2023-01-29T09:54:48;9.00;;;8.10;;
76346;SDS011;65171;48.378;10.010;2023-01-29T09:57:23;8.50;;;7.57;;
76346;SDS011;65171;48.378;10.010;2023-01-29T09:59:53;9.20;;;7.20;;
76346;SDS011;65171;48.378;10.010;2023-01-29T10:05:27;9.50;;;8.17;;
76346;SDS011;65171;48.378;10.010;2023-01-29T10:11:02;9.47;;;8.47;;
76346;SDS011;65171;48.378;10.010;2023-01-29T10:13:45;10.87;;;8.67;;
76346;SDS011;65171;48.378;10.010;2023-01-29T10:16:42;10.00;;;8.73;;
76346;SDS011;65171;48.378;10.010;2023-01-29T10:24:51;9.47;;;8.47;;
76346;SDS011;65171;48.378;10.010;2023-01-29T10:27:21;9.37;;;8.40;;
76346;SDS011;65171;48.378;10.010;2023-01-29T10:29:47;10.97;;;8.50;;
76346;SDS011;65171;48.378;10.010;2023-01-29T10:32:17;10.23;;;8.63;;
76346;SDS011;65171;48.378;10.010;2023-01-29T10:34:48;9.17;;;7.87;;
76346;SDS011;65171;48.378;10.010;2023-01-29T10:37:18;10.97;;;8.83;;
76346;SDS011;65171;48.378;10.010;2023-01-29T10:39:47;10.83;;;8.77;;
76346;SDS011;65171;48.378;10.010;2023-01-29T10:42:21;10.50;;;8.83;;
76346;SDS011;65171;48.378;10.010;2023-01-29T10:44:56;10.57;;;8.83;;
76346;SDS011;65171;48.378;10.010;2023-01-29T10:47:40;10.33;;;8.63;;
76346;SDS011;65171;48.378;10.010;2023-01-29T10:50:13;10.20;;;8.43;;
76346;SDS011;65171;48.378;10.010;2023-01-29T10:58:26;9.93;;;8.93;;
76346;SDS011;65171;48.378;10.010;2023-01-29T11:00:57;12.07;;;9.30;;
76346;SDS011;65171;48.378;10.010;2023-01-29T11:03:32;12.93;;;9.53;;
76346;SDS011;65171;48.378;10.010;2023-01-29T11:06:17;10.23;;;8.60;;
76346;SDS011;65171;48.378;10.010;2023-01-29T11:11:13;9.98;;;8.82;;
76346;SDS011;65171;48.378;10.010;2023-01-29T11:13:50;10.47;;;9.20;;
76346;SDS011;65171;48.378;10.010;2023-01-29T11:16:22;10.33;;;9.10;;
76346;SDS011;65171;48.378;10.010;2023-01-29T11:18:51;10.83;;;9.50;;
76346;SDS011;65171;48.378;10.010;2023-01-29T11:21:18;10.50;;;9.40;;
76346;SDS011;65171;48.378;10.010;2023-01-29T11:23:44;10.40;;;9.30;;
76346;SDS011;65171;48.378;10.010;2023-01-29T11:26:13;10.13;;;8.90;;
76346;SDS011;65171;48.378;10.010;2023-01-29T11:28:46;11.03;;;9.10;;
76346;SDS011;65171;48.378;10.010;2023-01-29T11:31:26;12.60;;;9.00;;
76346;SDS011;65171;48.378;10.010;2023-01-29T11:34:12;12.33;;;9.63;;
76346;SDS011;65171;48.378;10.010;2023-01-29T11:36:42;11.23;;;9.50;;
76346;SDS011;65171;48.378;10.010;2023-01-29T11:46:53;10.27;;;8.97;;
76346;SDS011;65171;48.378;10.010;2023-01-29T11:49:21;11.13;;;8.63;;
76346;SDS011;65171;48.378;10.010;2023-01-29T11:51:56;10.73;;;9.20;;
76346;SDS011;65171;48.378;10.010;2023-01-29T11:54:25;10.80;;;9.60;;
76346;SDS011;65171;48.378;10.010;2023-01-29T11:56:53;10.67;;;9.57;;
76346;SDS011;65171;48.378;10.010;2023-01-29T12:02:10;10.67;;;9.10;;
76346;SDS011;65171;48.378;10.010;2023-01-29T12:04:42;11.50;;;9.37;;
76346;SDS011;65171;48.378;10.010;2023-01-29T12:07:12;11.93;;;9.83;;
76346;SDS011;65171;48.378;10.010;2023-01-29T12:09:39;10.60;;;9.50;;
76346;SDS011;65171;48.378;10.010;2023-01-29T12:12:15;10.23;;;9.07;;
76346;SDS011;65171;48.378;10.010;2023-01-29T12:15:03;12.13;;;9.53;;
76346;SDS011;65171;48.378;10.010;2023-01-29T12:17:29;10.97;;;9.30;;
76346;SDS011;65171;48.378;10.010;2023-01-29T12:19:58;9.90;;;8.60;;
76346;SDS011;65171;48.378;10.010;2023-01-29T12:22:39;10.60;;;9.10;;
76346;SDS011;65171;48.378;10.010;2023-01-29T12:27:42;10.03;;;9.00;;
76346;SDS011;65171;48.378;10.010;2023-01-29T12:30:16;10.30;;;9.13;;
76346;SDS011;65171;48.378;10.010;2023-01-29T12:35:37;10.07;;;9.00;;
76346;SDS011;65171;48.378;10.010;2023-01-29T12:38:21;10.33;;;9.30;;
76346;SDS011;65171;48.378;10.010;2023-01-29T12:40:48;9.60;;;8.60;;
76346;SDS011;65171;48.378;10.010;2023-01-29T12:43:18;10.13;;;8.70;;
76346;SDS011;65171;48.378;10.010;2023-01-29T12:45:51;10.03;;;8.90;;
76346;SDS011;65171;48.378;10.010;2023-01-29T12:48:35;9.77;;;8.67;;
76346;SDS011;65171;48.378;10.010;2023-01-29T12:51:13;9.97;;;8.83;;
76346;SDS011;65171;48.378;10.010;2023-01-29T12:53:44;13.07;;;9.60;;
76346;SDS011;65171;48.378;10.010;2023-01-29T12:56:30;12.10;;;10.03;;
76346;SDS011;65171;48.378;10.010;2023-01-29T12:59:11;11.00;;;9.50;;
76346;SDS011;65171;48.378;10.010;2023-01-29T13:01:45;10.33;;;9.20;;
76346;SDS011;65171;48.378;10.010;2023-01-29T13:07:03;10.40;;;8.83;;
76346;SDS011;65171;48.378;10.010;2023-01-29T13:09:36;10.50;;;9.20;;
76346;SDS011;65171;48.378;10.010;2023-01-29T13:12:06;11.07;;;9.63;;
76346;SDS011;65171;48.378;10.010;2023-01-29T13:14:41;10.67;;;9.37;;
76346;SDS011;65171;48.378;10.010;2023-01-29T13:17:44;10.47;;;9.17;;
76346;SDS011;65171;48.378;10.010;2023-01-29T13:20:31;11.60;;;9.60;;
76346;SDS011;65171;48.378;10.010;2023-01-29T13:22:58;11.20;;;9.57;;
76346;SDS011;65171;48.378;10.010;2023-01-29T13:25:30;11.17;;;9.30;;
76346;SDS011;65171;48.378;10.010;2023-01-29T13:27:55;10.77;;;9.40;;
76346;SDS011;65171;48.378;10.010;2023-01-29T13:32:56;11.50;;;9.60;;
76346;SDS011;65171;48.378;10.010;2023-01-29T13:35:24;12.20;;;9.60;;
76346;SDS011;65171;48.378;10.010;2023-01-29T13:37:52;11.87;;;10.17;;
76346;SDS011;65171;48.378;10.010;2023-01-29T13:40:28;11.90;;;10.00;;
76346;SDS011;65171;48.378;10.010;2023-01-29T13:42:55;11.17;;;9.43;;
76346;SDS011;65171;48.378;10.010;2023-01-29T13:45:22;11.67;;;10.47;;
76346;SDS011;65171;48.378;10.010;2023-01-29T13:47:50;12.13;;;10.00;;
76346;SDS011;65171;48.378;10.010;2023-01-29T13:53:01;10.40;;;9.13;;
76346;SDS011;65171;48.378;10.010;2023-01-29T13:55:29;11.10;;;9.73;;
76346;SDS011;65171;48.378;10.010;2023-01-29T13:57:58;11.50;;;10.07;;
76346;SDS011;65171;48.378;10.010;2023-01-29T14:08:01;11.83;;;10.17;;
76346;SDS011;65171;48.378;10.010;2023-01-29T14:10:30;12.70;;;8.83;;
76346;SDS011;65171;48.378;10.010;2023-01-29T14:13:42;11.40;;;9.43;;
76346;SDS011;65171;48.378;10.010;2023-01-29T14:15:43;11.57;;;9.60;;
76346;SDS011;65171;48.378;10.010;2023-01-29T14:18:20;12.60;;;9.93;;
76346;SDS011;65171;48.378;10.010;2023-01-29T14:26:04;12.17;;;10.30;;
76346;SDS011;65171;48.378;10.010;2023-01-29T14:28:42;11.87;;;9.87;;
76346;SDS011;65171;48.378;10.010;2023-01-29T14:31:26;12.03;;;9.93;;
76346;SDS011;65171;48.378;10.010;2023-01-29T14:33:52;11.27;;;9.83;;
76346;SDS011;65171;48.378;10.010;2023-01-29T14:36:23;14.40;;;9.80;;
76346;SDS011;65171;48.378;10.010;2023-01-29T14:38:49;12.67;;;10.37;;
76346;SDS011;65171;48.378;10.010;2023-01-29T14:41:24;11.83;;;9.83;;
76346;SDS011;65171;48.378;10.010;2023-01-29T14:46:56;12.90;;;9.87;;
76346;SDS011;65171;48.378;10.010;2023-01-29T14:52:12;12.70;;;10.57;;
76346;SDS011;65171;48.378;10.010;2023-01-29T14:54:39;12.23;;;10.00;;
76346;SDS011;65171;48.378;10.010;2023-01-29T14:57:07;12.83;;;11.00;;
76346;SDS011;65171;48.378;10.010;2023-01-29T14:59:37;12.60;;;11.23;;
76346;SDS011;65171;48.378;10.010;2023-01-29T15:02:24;13.13;;;11.07;;
76346;SDS011;65171;48.378;10.010;2023-01-29T15:04:53;12.00;;;10.00;;
76346;SDS011;65171;48.378;10.010;2023-01-29T15:07:30;13.30;;;11.40;;
76346;SDS011;65171;48.378;10.010;2023-01-29T15:10:08;14.63;;;12.30;;
76346;SDS011;65171;48.378;10.010;2023-01-29T15:12:45;14.27;;;11.80;;
76346;SDS011;65171;48.378;10.010;2023-01-29T15:15:20;14.87;;;12.13;;
76346;SDS011;65171;48.378;10.010;2023-01-29T15:18:00;13.57;;;11.17;;
76346;SDS011;65171;48.378;10.010;2023-01-29T15:20:41;13.43;;;10.63;;
76346;SDS011;65171;48.378;10.010;2023-01-29T15:23:40;11.70;;;10.43;;
76346;SDS011;65171;48.378;10.010;2023-01-29T15:26:00;13.53;;;10.60;;
76346;SDS011;65171;48.378;10.010;2023-01-29T15:28:27;12.40;;;11.00;;
76346;SDS011;65171;48.378;10.010;2023-01-29T15:30:55;13.77;;;11.10;;
76346;SDS011;65171;48.378;10.010;2023-01-29T15:33:21;15.53;;;11.97;;
76346;SDS011;65171;48.378;10.010;2023-01-29T15:35:47;12.37;;;10.80;;
76346;SDS011;65171;48.378;10.010;2023-01-29T15:38:14;13.63;;;11.67;;
76346;SDS011;65171;48.378;10.010;2023-01-29T15:40:42;14.57;;;12.77;;
76346;SDS011;65171;48.378;10.010;2023-01-29T15:43:26;14.80;;;12.40;;
76346;SDS011;65171;48.378;10.010;2023-01-29T15:46:03;15.70;;;13.37;;
76346;SDS011;65171;48.378;10.010;2023-01-29T15:48:36;15.07;;;13.03;;
76346;SDS011;65171;48.378;10.010;2023-01-29T15:51:06;16.30;;;13.23;;
76346;SDS011;65171;48.378;10.010;2023-01-29T15:53:35;16.00;;;12.63;;
76346;SDS011;65171;48.378;10.010;2023-01-29T15:56:11;14.77;;;12.10;;
76346;SDS011;65171;48.378;10.010;2023-01-29T15:58:41;16.07;;;11.47;;
76346;SDS011;65171;48.378;10.010;2023-01-29T16:01:07;16.10;;;11.57;;
76346;SDS011;65171;48.378;10.010;2023-01-29T16:03:32;14.07;;;11.73;;
76346;SDS011;65171;48.378;10.010;2023-01-29T16:05:59;14.83;;;11.60;;
76346;SDS011;65171;48.378;10.010;2023-01-29T16:08:25;15.27;;;11.27;;
76346;SDS011;65171;48.378;10.010;2023-01-29T16:10:55;12.87;;;10.43;;
76346;SDS011;65171;48.378;10.010;2023-01-29T16:13:23;13.83;;;11.33;;
76346;SDS011;65171;48.378;10.010;2023-01-29T16:15:58;14.17;;;11.53;;
76346;SDS011;65171;48.378;10.010;2023-01-29T16:18:32;13.67;;;10.87;;
76346;SDS011;65171;48.378;10.010;2023-01-29T16:23:43;12.80;;;10.23;;
76346;SDS011;65171;48.378;10.010;2023-01-29T16:26:14;13.97;;;11.17;;
76346;SDS011;65171;48.378;10.010;2023-01-29T16:28:42;13.17;;;10.63;;
76346;SDS011;65171;48.378;10.010;2023-01-29T16:31:09;12.87;;;10.83;;